createdAt,value
2018-10-21T00:01:50.566Z,14.80
2018-10-21T00:04:17.938Z,15.10
2018-10-21T00:06:45.377Z,14.78
2018-10-21T00:09:13.367Z,16.05
2018-10-21T00:11:40.493Z,15.20
2018-10-21T00:14:08.219Z,16.07
2018-10-21T00:16:35.493Z,14.70
2018-10-21T00:19:02.886Z,15.35
2018-10-21T00:21:30.218Z,14.63
2018-10-21T00:23:57.598Z,13.68
2018-10-21T00:26:25.260Z,15.78
2018-10-21T00:28:52.529Z,14.07
2018-10-21T00:31:19.823Z,14.60
2018-10-21T00:33:47.151Z,14.58
2018-10-21T00:36:14.494Z,14.30
2018-10-21T00:38:41.845Z,14.30
2018-10-21T00:41:09.196Z,12.60
2018-10-21T00:43:36.503Z,14.23
2018-10-21T00:46:03.926Z,15.60
2018-10-21T00:48:31.241Z,13.28
2018-10-21T00:50:58.607Z,14.03
2018-10-21T00:53:25.991Z,14.38
2018-10-21T00:55:53.428Z,13.70
2018-10-21T00:58:21.342Z,14.05
2018-10-21T01:00:48.738Z,12.93
2018-10-21T01:03:16.081Z,12.80
2018-10-21T01:05:43.310Z,13.40
2018-10-21T01:08:10.632Z,14.23
2018-10-21T01:10:38.217Z,13.75
2018-10-21T01:13:05.549Z,13.50
2018-10-21T01:15:32.870Z,13.53
2018-10-21T01:18:00.168Z,12.30
2018-10-21T01:20:27.462Z,12.37
2018-10-21T01:22:54.741Z,12.63
2018-10-21T01:25:22.770Z,12.47
2018-10-21T01:27:50.122Z,13.65
2018-10-21T01:30:17.454Z,12.15
2018-10-21T01:32:44.826Z,11.75
2018-10-21T01:35:12.164Z,11.63
2018-10-21T01:37:39.494Z,13.03
2018-10-21T01:40:41.410Z,13.20
2018-10-21T01:43:09.524Z,11.53
2018-10-21T01:45:36.821Z,11.73
2018-10-21T01:48:05.344Z,11.57
2018-10-21T01:50:32.666Z,11.28
2018-10-21T01:53:01.265Z,12.70
2018-10-21T01:55:28.599Z,11.55
2018-10-21T01:57:56.875Z,13.50
2018-10-21T02:00:24.888Z,11.97
2018-10-21T02:02:52.495Z,11.40
2018-10-21T02:05:19.802Z,13.25
2018-10-21T02:07:47.100Z,12.23
2018-10-21T02:10:14.516Z,11.03
2018-10-21T02:12:41.914Z,12.63
2018-10-21T02:15:10.216Z,11.12
2018-10-21T02:17:37.436Z,12.20
2018-10-21T02:20:04.885Z,11.78
2018-10-21T02:22:32.167Z,11.70
2018-10-21T02:24:59.488Z,12.50
2018-10-21T02:27:26.754Z,11.57
2018-10-21T02:29:54.039Z,11.90
2018-10-21T02:32:21.543Z,12.30
2018-10-21T02:34:48.882Z,11.85
2018-10-21T02:37:16.254Z,14.40
2018-10-21T02:39:43.517Z,12.28
2018-10-21T02:42:10.872Z,11.38
2018-10-21T02:44:38.175Z,11.20
2018-10-21T02:47:05.466Z,11.00
2018-10-21T02:49:33.087Z,12.03
2018-10-21T02:52:05.820Z,12.33
2018-10-21T02:54:33.101Z,11.85
2018-10-21T02:57:00.465Z,12.28
2018-10-21T02:59:28.114Z,12.10
2018-10-21T03:01:55.456Z,12.58
2018-10-21T03:04:23.130Z,12.50
2018-10-21T03:06:50.741Z,11.90
2018-10-21T03:09:18.108Z,12.80
2018-10-21T03:11:45.454Z,12.25
2018-10-21T03:14:12.849Z,13.22
2018-10-21T03:16:40.373Z,12.65
2018-10-21T03:19:07.701Z,10.93
2018-10-21T03:21:35.174Z,13.03
2018-10-21T03:24:02.682Z,12.47
2018-10-21T03:26:29.934Z,12.68
2018-10-21T03:28:57.303Z,14.10
2018-10-21T03:31:25.524Z,12.60
2018-10-21T03:33:53.025Z,12.47
2018-10-21T03:36:20.164Z,12.68
2018-10-21T03:38:47.462Z,14.20
2018-10-21T03:41:14.774Z,12.60
2018-10-21T03:43:42.044Z,13.80
2018-10-21T03:46:11.608Z,13.45
2018-10-21T03:48:38.840Z,13.53
2018-10-21T03:51:06.123Z,11.93
2018-10-21T03:53:33.418Z,13.30
2018-10-21T03:56:00.698Z,12.63
2018-10-21T03:58:28.025Z,12.28
2018-10-21T04:00:55.369Z,11.48
2018-10-21T04:03:22.650Z,13.72
2018-10-21T04:05:49.931Z,14.05
2018-10-21T04:08:17.217Z,13.10
2018-10-21T04:10:44.535Z,12.55
2018-10-21T04:13:11.862Z,11.45
2018-10-21T04:15:39.138Z,13.90
2018-10-21T04:18:06.437Z,13.40
2018-10-21T04:20:33.743Z,12.65
2018-10-21T04:23:02.230Z,13.35
2018-10-21T04:25:30.706Z,11.45
2018-10-21T04:27:58.991Z,13.05
2018-10-21T04:30:28.357Z,12.23
2018-10-21T04:33:05.743Z,13.70
2018-10-21T04:35:33.462Z,13.18
2018-10-21T04:40:13.000Z,13.38
2018-10-21T04:42:40.515Z,15.68
2018-10-21T04:45:08.309Z,14.35
2018-10-21T04:47:35.634Z,13.78
2018-10-21T04:50:02.942Z,14.73
2018-10-21T04:52:31.741Z,12.60
2018-10-21T04:55:04.356Z,13.58
2018-10-21T04:57:31.751Z,14.20
2018-10-21T04:59:59.050Z,13.48
2018-10-21T05:02:26.546Z,13.60
2018-10-21T05:04:53.795Z,14.40
2018-10-21T05:07:21.188Z,15.25
2018-10-21T05:09:48.484Z,13.78
2018-10-21T05:12:15.806Z,14.60
2018-10-21T05:14:43.606Z,11.43
2018-10-21T05:17:11.447Z,14.60
2018-10-21T05:19:38.816Z,13.50
2018-10-21T05:22:06.608Z,13.55
2018-10-21T05:24:33.969Z,12.47
2018-10-21T05:27:01.253Z,13.13
2018-10-21T05:29:28.651Z,13.50
2018-10-21T05:31:55.973Z,15.05
2018-10-21T05:34:23.262Z,20.25
2018-10-21T05:36:50.527Z,17.65
2018-10-21T05:39:17.807Z,15.85
2018-10-21T05:41:45.279Z,15.85
2018-10-21T05:44:12.592Z,16.52
2018-10-21T05:46:41.921Z,15.13
2018-10-21T05:49:09.686Z,15.83
2018-10-21T05:51:37.279Z,14.43
2018-10-21T05:54:05.014Z,16.82
2018-10-21T05:56:32.305Z,18.90
2018-10-21T05:58:59.599Z,16.00
2018-10-21T06:01:26.906Z,17.52
2018-10-21T06:03:54.181Z,19.87
2018-10-21T06:06:21.487Z,18.70
2018-10-21T06:08:48.969Z,21.73
2018-10-21T06:11:16.253Z,19.65
2018-10-21T06:13:43.543Z,19.40
2018-10-21T06:16:10.895Z,18.27
2018-10-21T06:18:38.150Z,19.02
2018-10-21T06:21:05.998Z,21.37
2018-10-21T06:23:33.283Z,18.50
2018-10-21T06:26:00.575Z,18.45
2018-10-21T06:28:27.888Z,19.10
2018-10-21T06:30:55.190Z,16.50
2018-10-21T06:33:22.479Z,17.25
2018-10-21T06:35:49.804Z,18.75
2018-10-21T06:38:17.215Z,16.93
2018-10-21T06:40:44.530Z,15.50
2018-10-21T06:43:11.830Z,16.73
2018-10-21T06:45:39.127Z,17.20
2018-10-21T06:48:06.693Z,14.35
2018-10-21T06:50:34.150Z,15.18
2018-10-21T06:53:01.507Z,16.97
2018-10-21T06:55:28.795Z,15.15
2018-10-21T06:57:56.090Z,16.80
2018-10-21T07:00:23.401Z,16.30
2018-10-21T07:02:50.712Z,14.78
2018-10-21T07:05:24.030Z,15.08
2018-10-21T07:07:51.844Z,15.58
2018-10-21T07:10:19.846Z,15.78
2018-10-21T07:12:47.162Z,15.63
2018-10-21T07:15:14.606Z,14.95
2018-10-21T07:17:41.944Z,15.15
2018-10-21T07:20:09.851Z,15.32
2018-10-21T07:22:37.162Z,16.07
2018-10-21T07:25:04.930Z,15.83
2018-10-21T07:27:32.254Z,15.98
2018-10-21T07:29:59.596Z,15.68
2018-10-21T07:32:26.893Z,14.78
2018-10-21T07:34:54.231Z,16.75
2018-10-21T07:37:21.562Z,15.38
2018-10-21T07:39:48.885Z,14.73
2018-10-21T07:42:16.854Z,15.75
2018-10-21T07:44:44.204Z,15.65
2018-10-21T07:47:11.563Z,15.32
2018-10-21T07:49:38.859Z,16.90
2018-10-21T07:52:06.241Z,15.80
2018-10-21T07:54:33.511Z,16.00
2018-10-21T07:57:00.873Z,15.10
2018-10-21T07:59:28.176Z,14.95
2018-10-21T08:01:55.503Z,14.78
2018-10-21T08:04:22.780Z,14.47
2018-10-21T08:06:55.579Z,14.80
2018-10-21T08:09:22.986Z,14.55
2018-10-21T08:11:50.297Z,14.20
2018-10-21T08:14:17.575Z,14.93
2018-10-21T08:16:44.870Z,14.30
2018-10-21T08:19:12.258Z,14.35
2018-10-21T08:21:39.576Z,14.23
2018-10-21T08:24:06.871Z,13.78
2018-10-21T08:26:34.177Z,14.38
2018-10-21T08:29:01.468Z,13.10
2018-10-21T08:31:28.766Z,13.90
2018-10-21T08:33:56.083Z,14.73
2018-10-21T08:36:23.376Z,15.43
2018-10-21T08:38:50.778Z,15.50
2018-10-21T08:41:18.106Z,13.05
2018-10-21T08:43:45.411Z,14.23
2018-10-21T08:46:12.801Z,13.58
2018-10-21T08:48:39.994Z,13.98
2018-10-21T08:51:07.306Z,15.15
2018-10-21T08:53:34.710Z,15.15
2018-10-21T08:56:02.091Z,14.65
2018-10-21T08:58:29.404Z,13.75
2018-10-21T09:00:56.774Z,13.88
2018-10-21T09:03:24.024Z,14.63
2018-10-21T09:05:51.350Z,15.10
2018-10-21T09:08:18.639Z,13.78
2018-10-21T09:10:46.105Z,14.60
2018-10-21T09:13:13.400Z,13.60
2018-10-21T09:15:40.640Z,13.35
2018-10-21T09:18:07.961Z,12.75
2018-10-21T09:20:35.275Z,13.95
2018-10-21T09:23:02.851Z,13.95
2018-10-21T09:25:30.245Z,14.23
2018-10-21T09:27:57.556Z,13.95
2018-10-21T09:30:24.879Z,15.68
2018-10-21T09:32:52.212Z,13.93
2018-10-21T09:35:19.967Z,13.43
2018-10-21T09:37:47.298Z,15.15
2018-10-21T09:40:16.014Z,14.93
2018-10-21T09:42:43.914Z,14.98
2018-10-21T09:45:15.598Z,17.00
2018-10-21T09:47:43.514Z,14.43
2018-10-21T09:50:11.122Z,13.65
2018-10-21T09:52:38.415Z,14.10
2018-10-21T09:55:10.436Z,15.32
2018-10-21T09:57:37.692Z,14.38
2018-10-21T10:00:05.418Z,15.53
2018-10-21T10:02:38.215Z,16.62
2018-10-21T10:05:06.144Z,14.40
2018-10-21T10:07:33.451Z,15.08
2018-10-21T10:10:00.869Z,14.78
2018-10-21T10:12:28.219Z,15.43
2018-10-21T10:14:55.545Z,15.68
2018-10-21T10:17:22.856Z,14.28
2018-10-21T10:19:50.142Z,15.93
2018-10-21T10:22:17.524Z,15.40
2018-10-21T10:24:44.864Z,16.15
2018-10-21T10:27:12.182Z,17.35
2018-10-21T10:29:39.579Z,16.52
2018-10-21T10:32:07.141Z,15.60
2018-10-21T10:34:34.449Z,15.58
2018-10-21T10:37:01.736Z,15.75
2018-10-21T10:39:29.043Z,15.75
2018-10-21T10:41:56.438Z,15.80
2018-10-21T10:44:23.709Z,15.90
2018-10-21T10:46:50.993Z,17.25
2018-10-21T10:49:18.397Z,16.30
2018-10-21T10:51:45.630Z,16.15
2018-10-21T10:54:12.968Z,15.35
2018-10-21T10:56:40.281Z,15.13
2018-10-21T10:59:07.650Z,18.23
2018-10-21T11:01:34.977Z,15.03
2018-10-21T11:04:02.299Z,18.00
2018-10-21T11:06:29.556Z,15.30
2018-10-21T11:08:56.874Z,17.37
2018-10-21T11:11:24.174Z,16.07
2018-10-21T11:13:51.474Z,16.60
2018-10-21T11:16:18.880Z,16.90
2018-10-21T11:18:46.080Z,15.18
2018-10-21T11:21:13.640Z,15.32
2018-10-21T11:23:40.995Z,15.72
2018-10-21T11:26:08.303Z,14.45
2018-10-21T11:28:35.625Z,13.83
2018-10-21T11:31:02.939Z,13.58
2018-10-21T11:33:30.238Z,15.00
2018-10-21T11:35:57.822Z,13.25
2018-10-21T11:38:25.222Z,14.40
2018-10-21T11:40:52.548Z,13.43
2018-10-21T11:43:19.847Z,13.25
2018-10-21T11:45:47.224Z,12.75
2018-10-21T11:48:14.699Z,10.80
2018-10-21T11:50:42.439Z,10.10
2018-10-21T11:53:09.757Z,10.60
2018-10-21T11:55:37.098Z,10.25
2018-10-21T11:58:05.573Z,10.80
2018-10-21T12:00:32.850Z,11.95
2018-10-21T12:03:00.298Z,9.75
2018-10-21T12:05:27.664Z,10.55
2018-10-21T12:07:54.969Z,8.98
2018-10-21T12:10:22.312Z,9.03
2018-10-21T12:12:49.643Z,7.78
2018-10-21T12:15:17.423Z,7.95
2018-10-21T12:17:44.730Z,4.95
2018-10-21T12:20:12.066Z,6.53
2018-10-21T12:22:39.484Z,7.28
2018-10-21T12:25:06.864Z,6.50
2018-10-21T12:27:34.164Z,6.55
2018-10-21T12:30:01.457Z,7.10
2018-10-21T12:32:28.779Z,6.30
2018-10-21T12:34:56.124Z,6.65
2018-10-21T12:37:23.395Z,7.05
2018-10-21T12:39:51.055Z,5.95
2018-10-21T12:42:18.733Z,5.85
2018-10-21T12:44:46.073Z,6.33
2018-10-21T12:47:13.461Z,5.40
2018-10-21T12:49:40.694Z,5.40
2018-10-21T12:52:07.987Z,6.85
2018-10-21T12:54:35.400Z,5.50
2018-10-21T12:57:02.686Z,5.75
2018-10-21T12:59:30.043Z,5.90
2018-10-21T13:01:57.583Z,5.08
2018-10-21T13:04:24.897Z,4.87
2018-10-21T13:06:52.194Z,5.10
2018-10-21T13:09:19.790Z,4.65
2018-10-21T13:11:47.113Z,4.22
2018-10-21T13:14:14.425Z,4.70
2018-10-21T13:16:41.720Z,4.40
2018-10-21T13:19:09.091Z,3.92
2018-10-21T13:21:36.338Z,3.40
2018-10-21T13:24:03.725Z,3.85
2018-10-21T13:26:31.037Z,3.40
2018-10-21T13:28:58.420Z,3.67
2018-10-21T13:31:25.604Z,3.15
2018-10-21T13:33:52.979Z,3.30
2018-10-21T13:36:20.295Z,3.70
2018-10-21T13:38:47.665Z,3.00
2018-10-21T13:41:14.997Z,3.10
2018-10-21T13:43:42.285Z,3.00
2018-10-21T13:46:09.745Z,3.60
2018-10-21T13:48:37.088Z,3.70
2018-10-21T13:51:05.008Z,3.45
2018-10-21T13:53:32.427Z,4.70
2018-10-21T13:55:59.713Z,3.67
2018-10-21T13:58:27.042Z,3.20
2018-10-21T14:00:54.472Z,3.10
2018-10-21T14:03:21.724Z,2.92
2018-10-21T14:05:49.041Z,3.45
2018-10-21T14:08:16.472Z,3.40
2018-10-21T14:10:43.803Z,3.37
2018-10-21T14:13:11.143Z,3.30
2018-10-21T14:15:38.407Z,3.80
2018-10-21T14:18:05.713Z,3.60
2018-10-21T14:20:33.027Z,3.98
2018-10-21T14:23:00.366Z,3.67
2018-10-21T14:25:27.836Z,3.98
2018-10-21T14:27:55.140Z,3.62
2018-10-21T14:30:22.471Z,3.80
2018-10-21T14:32:49.738Z,3.47
2018-10-21T14:35:17.358Z,3.45
2018-10-21T14:37:44.683Z,4.35
2018-10-21T14:40:13.194Z,3.50
2018-10-21T14:42:40.920Z,3.10
2018-10-21T14:45:09.377Z,4.15
2018-10-21T14:47:36.939Z,4.12
2018-10-21T14:50:04.347Z,3.90
2018-10-21T14:52:31.607Z,3.70
2018-10-21T14:54:58.962Z,3.12
2018-10-21T14:57:26.367Z,4.10
2018-10-21T14:59:53.656Z,3.20
2018-10-21T15:02:20.953Z,3.62
2018-10-21T15:04:48.259Z,2.85
2018-10-21T15:07:15.586Z,3.70
2018-10-21T15:09:43.360Z,3.50
2018-10-21T15:12:10.672Z,4.50
2018-10-21T15:14:37.894Z,3.45
2018-10-21T15:17:05.590Z,3.92
2018-10-21T15:19:32.919Z,3.50
2018-10-21T15:22:00.241Z,3.25
2018-10-21T15:24:27.582Z,3.55
2018-10-21T15:26:54.899Z,3.30
2018-10-21T15:29:22.224Z,3.55
2018-10-21T15:31:49.520Z,3.60
2018-10-21T15:34:16.960Z,3.85
2018-10-21T15:36:44.156Z,2.90
2018-10-21T15:39:11.722Z,3.60
2018-10-21T15:41:39.528Z,3.42
2018-10-21T15:44:07.225Z,3.15
2018-10-21T15:46:34.533Z,3.30
2018-10-21T15:49:01.953Z,3.70
2018-10-21T15:51:29.242Z,3.27
2018-10-21T15:53:56.708Z,3.45
2018-10-21T15:56:23.996Z,3.60
2018-10-21T15:58:51.372Z,3.70
2018-10-21T16:01:18.757Z,3.98
2018-10-21T16:03:46.080Z,3.35
2018-10-21T16:06:13.508Z,4.28
2018-10-21T16:08:45.290Z,3.83
2018-10-21T16:11:13.190Z,3.70
2018-10-21T16:13:40.560Z,3.45
2018-10-21T16:16:08.063Z,3.50
2018-10-21T16:18:35.899Z,3.42
2018-10-21T16:21:03.473Z,3.10
2018-10-21T16:23:30.981Z,4.65
2018-10-21T16:25:58.517Z,3.83
2018-10-21T16:28:25.887Z,3.55
2018-10-21T16:30:53.842Z,3.22
2018-10-21T16:33:21.249Z,5.00
2018-10-21T16:35:48.852Z,4.10
2018-10-21T16:38:16.377Z,4.37
2018-10-21T16:40:43.954Z,4.70
2018-10-21T16:43:11.422Z,4.87
2018-10-21T16:45:41.814Z,4.65
2018-10-21T16:48:14.450Z,4.90
2018-10-21T16:50:42.151Z,5.03
2018-10-21T16:53:10.488Z,4.92
2018-10-21T16:55:42.933Z,5.60
2018-10-21T16:58:11.080Z,5.50
2018-10-21T17:00:39.010Z,5.35
2018-10-21T17:03:06.999Z,5.50
2018-10-21T17:05:34.383Z,5.05
2018-10-21T17:08:05.649Z,5.12
2018-10-21T17:10:38.679Z,4.58
2018-10-21T17:13:06.102Z,4.40
2018-10-21T17:15:33.548Z,4.30
2018-10-21T17:18:08.454Z,5.00
2018-10-21T17:20:36.040Z,4.60
2018-10-21T17:23:04.640Z,4.12
2018-10-21T17:25:32.012Z,4.45
2018-10-21T17:28:00.154Z,4.78
2018-10-21T17:30:31.775Z,5.45
2018-10-21T17:33:03.450Z,6.10
2018-10-21T17:35:30.937Z,5.00
2018-10-21T17:38:02.395Z,5.62
2018-10-21T17:43:01.496Z,5.30
2018-10-21T17:45:47.135Z,5.03
2018-10-21T17:51:46.544Z,4.40
2018-10-21T17:54:14.013Z,4.60
2018-10-21T17:56:46.913Z,4.62
2018-10-21T17:59:18.237Z,4.90
2018-10-21T18:01:49.773Z,4.15
2018-10-21T18:04:17.249Z,4.47
2018-10-21T18:06:45.812Z,4.60
2018-10-21T18:09:17.395Z,3.98
2018-10-21T18:11:45.601Z,4.53
2018-10-21T18:14:18.634Z,4.15
2018-10-21T18:16:46.369Z,5.03
2018-10-21T18:19:14.809Z,4.22
2018-10-21T18:21:42.309Z,6.03
2018-10-21T18:24:10.956Z,5.90
2018-10-21T18:26:42.838Z,5.72
2018-10-21T18:29:14.747Z,5.40
2018-10-21T18:31:42.181Z,6.35
2018-10-21T18:34:11.037Z,6.10
2018-10-21T18:36:44.664Z,6.12
2018-10-21T18:39:12.127Z,7.85
2018-10-21T18:41:40.483Z,7.15
2018-10-21T18:44:09.581Z,7.90
2018-10-21T18:46:39.007Z,7.50
2018-10-21T18:49:07.061Z,7.37
2018-10-21T18:51:35.082Z,8.10
2018-10-21T18:54:02.595Z,8.00
2018-10-21T18:56:30.607Z,7.33
2018-10-21T18:58:58.405Z,7.65
2018-10-21T19:01:26.293Z,7.78
2018-10-21T19:03:53.784Z,8.68
2018-10-21T19:06:23.122Z,6.72
2018-10-21T19:08:51.374Z,7.37
2018-10-21T19:11:20.400Z,7.25
2018-10-21T19:13:49.192Z,8.80
2018-10-21T19:16:22.763Z,7.60
2018-10-21T19:18:50.842Z,8.05
2018-10-21T19:21:18.577Z,8.43
2018-10-21T19:23:51.485Z,9.53
2018-10-21T19:26:23.604Z,9.70
2018-10-21T19:28:52.967Z,9.20
2018-10-21T19:31:22.568Z,8.73
2018-10-21T19:33:51.914Z,9.30
2018-10-21T19:36:24.496Z,10.65
2018-10-21T19:38:52.976Z,8.85
2018-10-21T19:41:22.443Z,10.05
2018-10-21T19:43:51.482Z,9.25
2018-10-21T19:46:24.919Z,10.15
2018-10-21T19:49:00.875Z,9.05
2018-10-21T19:53:56.200Z,10.00
2018-10-21T19:56:23.625Z,9.25
2018-10-21T19:58:51.080Z,10.48
2018-10-21T20:01:23.501Z,10.20
2018-10-21T20:03:50.982Z,10.50
2018-10-21T20:06:18.495Z,10.95
2018-10-21T20:08:51.066Z,10.88
2018-10-21T20:11:19.601Z,9.50
2018-10-21T20:13:47.079Z,10.45
2018-10-21T20:16:14.583Z,10.38
2018-10-21T20:18:42.379Z,10.40
2018-10-21T20:21:10.400Z,11.15
2018-10-21T20:23:39.217Z,10.13
2018-10-21T20:26:07.638Z,9.93
2018-10-21T20:28:39.473Z,9.80
2018-10-21T20:31:07.033Z,10.85
2018-10-21T20:33:45.289Z,11.70
2018-10-21T20:36:13.310Z,11.35
2018-10-21T20:38:45.118Z,10.93
2018-10-21T20:41:19.622Z,10.75
2018-10-21T20:43:47.140Z,11.53
2018-10-21T20:46:19.776Z,9.90
2018-10-21T20:48:48.416Z,12.50
2018-10-21T20:51:16.025Z,9.85
2018-10-21T20:53:47.908Z,10.95
2018-10-21T20:56:15.321Z,10.25
2018-10-21T20:58:43.226Z,9.98
2018-10-21T21:01:10.718Z,10.45
2018-10-21T21:03:38.611Z,11.97
2018-10-21T21:06:14.783Z,9.83
2018-10-21T21:08:42.482Z,11.93
2018-10-21T21:11:10.624Z,10.43
2018-10-21T21:13:38.145Z,11.55
2018-10-21T21:18:39.459Z,10.58
2018-10-21T21:21:06.907Z,10.90
2018-10-21T21:23:39.879Z,10.88
2018-10-21T21:26:11.698Z,11.95
2018-10-21T21:28:40.444Z,11.90
2018-10-21T21:31:07.934Z,11.43
2018-10-21T21:36:07.395Z,10.20
2018-10-21T21:38:35.178Z,11.40
2018-10-21T21:41:07.169Z,11.20
2018-10-21T21:43:34.618Z,11.60
2018-10-21T21:46:02.597Z,12.10
2018-10-21T21:48:30.058Z,10.72
2018-10-21T21:50:59.426Z,12.30
2018-10-21T21:53:27.480Z,12.43
2018-10-21T21:55:55.144Z,10.95
2018-10-21T21:58:24.101Z,10.78
2018-10-21T22:00:51.868Z,11.93
2018-10-21T22:03:19.333Z,12.50
2018-10-21T22:05:47.760Z,11.12
2018-10-21T22:08:15.178Z,11.45
2018-10-21T22:10:44.357Z,10.93
2018-10-21T22:13:11.860Z,10.58
2018-10-21T22:15:40.304Z,11.33
2018-10-21T22:18:13.254Z,10.90
2018-10-21T22:20:41.530Z,11.48
2018-10-21T22:23:15.044Z,10.63
2018-10-21T22:25:42.461Z,10.28
2018-10-21T22:28:09.903Z,10.23
2018-10-21T22:30:37.386Z,11.28
2018-10-21T22:33:06.990Z,10.23
2018-10-21T22:35:35.593Z,11.18
2018-10-21T22:38:03.581Z,10.60
2018-10-21T22:40:31.513Z,11.30
2018-10-21T22:43:03.770Z,10.55
2018-10-21T22:45:36.133Z,10.03
2018-10-21T22:48:05.719Z,11.08
2018-10-21T22:50:33.779Z,12.28
2018-10-21T22:53:01.359Z,10.72
2018-10-21T22:55:28.735Z,11.78
2018-10-21T22:57:56.149Z,11.90
2018-10-21T23:00:23.827Z,11.12
2018-10-21T23:02:53.594Z,11.05
2018-10-21T23:05:21.508Z,11.95
2018-10-21T23:07:51.039Z,11.25
2018-10-21T23:10:19.777Z,11.68
2018-10-21T23:12:47.374Z,10.53
2018-10-21T23:15:15.264Z,11.60
2018-10-21T23:17:42.755Z,11.35
2018-10-21T23:20:10.534Z,10.88
2018-10-21T23:22:38.009Z,12.25
2018-10-21T23:25:06.515Z,11.05
2018-10-21T23:27:33.933Z,11.08
2018-10-21T23:30:04.032Z,12.07
2018-10-21T23:32:31.421Z,10.35
2018-10-21T23:34:59.052Z,11.22
2018-10-21T23:37:26.884Z,10.55
2018-10-21T23:39:54.625Z,9.93
2018-10-21T23:42:26.476Z,9.05
2018-10-21T23:44:53.895Z,10.05
2018-10-21T23:47:21.833Z,10.78
2018-10-21T23:49:50.028Z,10.08
2018-10-21T23:52:17.512Z,10.55
2018-10-21T23:54:44.878Z,11.25
2018-10-21T23:57:12.799Z,11.22
2018-10-21T23:59:40.797Z,11.65
